Terminal Aerodrome Forecast
Issued by NWS

Home | Current Version | Previous Version | Text Only | Print | Product List | Glossary On
Versions: 1 2 3 4 5 6 7 8 9 10 11 12 13 14 15 16
000
FTUS44 KTSA 271700
TAFMLC
TAF
KMLC 271721Z 2718/2818 08012G23KT P6SM VCSH OVC090
      TEMPO 2722/2802 5SM -TSRA BKN035CB
     FM280200 02005KT 5SM -TSRA BR BKN025CB
     FM281600 04005KT P6SM BKN025 PROB30 2816/2818 6SM -RA BKN025=

USA.gov is the U.S. government's official web portal to all federal, state and local government web resources and services.